首页
METAR-TAF:

METAR-TAF

机场 :

艾登, 土耳其

纬度: 37-48-54N, 经度: 27-53-21E, 海拔: 31米

当前天气观测

该预报发布于9小时和58分钟前的13:50 UTC
风速3节,风向西转西南
温度 15°C
湿度 59%
气压 1013 hPa
能见度10公里或以上
少量云层高于4000英尺

METAR: LTBD 091350Z 25003KT 9999 FEW040 15/07 Q1013

时间: 02:48 (23:48 UTC)

预报

该预报发布于10小时和8分钟前的13:40 UTC
预报有效从09日的 15点(UTC)到 09日的 24点(UTC)
风速2节,风向多变
能见度10公里或以上
少量云层高于4000英尺

TAF: LTBD 091340Z 0915/0924 VRB02KT 9999 FEW040

超过4000个机场的气象观测和天气预报(METAR&TAF报告)。

可查询的气象台以黄色和红色小点在地图上表示。

将鼠标移到小点上方,可查看气象台名称。

然后点击查看天气观测和预报。

如需切换地图:点击带黑十字的绿色按钮放大地图;点击带横线的绿色按钮缩小地图;或者点击绿色箭头查看邻近地区的地图。


METAR-TAF: